sensor_id;sensor_type;location;lat;lon;timestamp;P1;durP1;ratioP1;P2;durP2;ratioP2
48522;SDS011;34315;50.150;11.070;2023-07-09T00:00:36;9.02;;;6.43;;
48522;SDS011;34315;50.150;11.070;2023-07-09T00:05:38;10.13;;;6.25;;
48522;SDS011;34315;50.150;11.070;2023-07-09T00:10:39;9.73;;;6.82;;
48522;SDS011;34315;50.150;11.070;2023-07-09T00:15:40;11.30;;;6.95;;
48522;SDS011;34315;50.150;11.070;2023-07-09T00:20:41;10.23;;;6.32;;
48522;SDS011;34315;50.150;11.070;2023-07-09T00:25:44;12.20;;;7.18;;
48522;SDS011;34315;50.150;11.070;2023-07-09T00:30:45;8.35;;;6.45;;
48522;SDS011;34315;50.150;11.070;2023-07-09T00:35:47;12.63;;;6.20;;
48522;SDS011;34315;50.150;11.070;2023-07-09T00:41:04;10.07;;;6.40;;
48522;SDS011;34315;50.150;11.070;2023-07-09T00:51:19;10.23;;;6.63;;
48522;SDS011;34315;50.150;11.070;2023-07-09T00:56:32;11.70;;;6.60;;
48522;SDS011;34315;50.150;11.070;2023-07-09T01:01:35;12.50;;;6.65;;
48522;SDS011;34315;50.150;11.070;2023-07-09T01:06:37;9.30;;;6.53;;
48522;SDS011;34315;50.150;11.070;2023-07-09T01:11:42;9.32;;;6.18;;
48522;SDS011;34315;50.150;11.070;2023-07-09T01:16:51;9.40;;;6.10;;
48522;SDS011;34315;50.150;11.070;2023-07-09T01:22:00;9.05;;;6.50;;
48522;SDS011;34315;50.150;11.070;2023-07-09T01:27:02;13.25;;;6.70;;
48522;SDS011;34315;50.150;11.070;2023-07-09T01:32:04;10.45;;;6.22;;
48522;SDS011;34315;50.150;11.070;2023-07-09T01:37:07;8.77;;;5.95;;
48522;SDS011;34315;50.150;11.070;2023-07-09T01:42:08;8.27;;;5.60;;
48522;SDS011;34315;50.150;11.070;2023-07-09T01:47:10;9.40;;;6.65;;
48522;SDS011;34315;50.150;11.070;2023-07-09T01:52:11;9.63;;;6.72;;
48522;SDS011;34315;50.150;11.070;2023-07-09T01:57:14;11.07;;;7.13;;
48522;SDS011;34315;50.150;11.070;2023-07-09T02:02:23;8.95;;;6.60;;
48522;SDS011;34315;50.150;11.070;2023-07-09T02:07:24;11.95;;;6.57;;
48522;SDS011;34315;50.150;11.070;2023-07-09T02:12:25;9.18;;;6.60;;
48522;SDS011;34315;50.150;11.070;2023-07-09T02:17:26;9.65;;;6.65;;
48522;SDS011;34315;50.150;11.070;2023-07-09T02:22:28;11.20;;;7.65;;
48522;SDS011;34315;50.150;11.070;2023-07-09T02:27:29;12.23;;;7.35;;
48522;SDS011;34315;50.150;11.070;2023-07-09T02:32:30;11.57;;;7.43;;
48522;SDS011;34315;50.150;11.070;2023-07-09T02:37:32;12.63;;;6.95;;
48522;SDS011;34315;50.150;11.070;2023-07-09T02:42:34;10.07;;;7.03;;
48522;SDS011;34315;50.150;11.070;2023-07-09T02:47:35;8.23;;;6.15;;
48522;SDS011;34315;50.150;11.070;2023-07-09T02:52:37;9.30;;;6.65;;
48522;SDS011;34315;50.150;11.070;2023-07-09T02:57:38;9.70;;;6.95;;
48522;SDS011;34315;50.150;11.070;2023-07-09T03:02:39;8.65;;;6.50;;
48522;SDS011;34315;50.150;11.070;2023-07-09T03:07:40;10.35;;;6.45;;
48522;SDS011;34315;50.150;11.070;2023-07-09T03:12:41;10.30;;;6.63;;
48522;SDS011;34315;50.150;11.070;2023-07-09T03:17:43;10.23;;;6.78;;
48522;SDS011;34315;50.150;11.070;2023-07-09T03:22:44;9.95;;;6.60;;
48522;SDS011;34315;50.150;11.070;2023-07-09T03:27:47;9.40;;;7.20;;
48522;SDS011;34315;50.150;11.070;2023-07-09T03:32:49;9.45;;;7.03;;
48522;SDS011;34315;50.150;11.070;2023-07-09T03:37:50;8.70;;;7.03;;
48522;SDS011;34315;50.150;11.070;2023-07-09T03:42:51;13.00;;;7.63;;
48522;SDS011;34315;50.150;11.070;2023-07-09T03:47:52;11.77;;;7.38;;
48522;SDS011;34315;50.150;11.070;2023-07-09T03:52:53;9.10;;;7.00;;
48522;SDS011;34315;50.150;11.070;2023-07-09T03:57:54;9.07;;;6.78;;
48522;SDS011;34315;50.150;11.070;2023-07-09T04:02:56;11.15;;;7.80;;
48522;SDS011;34315;50.150;11.070;2023-07-09T04:07:57;9.13;;;7.25;;
48522;SDS011;34315;50.150;11.070;2023-07-09T04:12:59;9.35;;;6.85;;
48522;SDS011;34315;50.150;11.070;2023-07-09T04:18:00;10.52;;;7.00;;
48522;SDS011;34315;50.150;11.070;2023-07-09T04:23:01;10.23;;;7.00;;
48522;SDS011;34315;50.150;11.070;2023-07-09T04:28:03;8.60;;;6.50;;
48522;SDS011;34315;50.150;11.070;2023-07-09T04:33:04;10.52;;;7.18;;
48522;SDS011;34315;50.150;11.070;2023-07-09T04:38:06;9.63;;;7.13;;
48522;SDS011;34315;50.150;11.070;2023-07-09T04:43:07;12.70;;;7.43;;
48522;SDS011;34315;50.150;11.070;2023-07-09T04:48:08;9.10;;;7.25;;
48522;SDS011;34315;50.150;11.070;2023-07-09T04:53:09;11.70;;;7.57;;
48522;SDS011;34315;50.150;11.070;2023-07-09T04:58:10;8.85;;;6.78;;
48522;SDS011;34315;50.150;11.070;2023-07-09T05:03:11;9.25;;;6.88;;
48522;SDS011;34315;50.150;11.070;2023-07-09T05:08:13;9.50;;;7.15;;
48522;SDS011;34315;50.150;11.070;2023-07-09T05:13:14;8.00;;;6.15;;
48522;SDS011;34315;50.150;11.070;2023-07-09T05:18:16;9.90;;;7.50;;
48522;SDS011;34315;50.150;11.070;2023-07-09T05:23:18;8.93;;;6.30;;
48522;SDS011;34315;50.150;11.070;2023-07-09T05:28:19;10.23;;;6.63;;
48522;SDS011;34315;50.150;11.070;2023-07-09T05:33:20;8.82;;;6.38;;
48522;SDS011;34315;50.150;11.070;2023-07-09T05:38:22;8.82;;;7.07;;
48522;SDS011;34315;50.150;11.070;2023-07-09T05:43:23;9.18;;;7.10;;
48522;SDS011;34315;50.150;11.070;2023-07-09T05:48:24;8.30;;;6.82;;
48522;SDS011;34315;50.150;11.070;2023-07-09T05:53:25;8.88;;;7.35;;
48522;SDS011;34315;50.150;11.070;2023-07-09T05:58:26;9.70;;;6.65;;
48522;SDS011;34315;50.150;11.070;2023-07-09T06:03:28;10.48;;;7.30;;
48522;SDS011;34315;50.150;11.070;2023-07-09T06:08:30;10.10;;;7.13;;
48522;SDS011;34315;50.150;11.070;2023-07-09T06:13:31;10.65;;;7.18;;
48522;SDS011;34315;50.150;11.070;2023-07-09T06:18:32;9.20;;;7.78;;
48522;SDS011;34315;50.150;11.070;2023-07-09T06:23:34;7.97;;;6.72;;
48522;SDS011;34315;50.150;11.070;2023-07-09T06:28:35;12.95;;;7.53;;
48522;SDS011;34315;50.150;11.070;2023-07-09T06:33:36;8.57;;;6.72;;
48522;SDS011;34315;50.150;11.070;2023-07-09T06:38:37;10.30;;;6.85;;
48522;SDS011;34315;50.150;11.070;2023-07-09T06:43:38;11.07;;;7.18;;
48522;SDS011;34315;50.150;11.070;2023-07-09T06:48:40;10.27;;;7.30;;
48522;SDS011;34315;50.150;11.070;2023-07-09T06:53:41;12.50;;;7.43;;
48522;SDS011;34315;50.150;11.070;2023-07-09T06:58:43;12.07;;;7.15;;
48522;SDS011;34315;50.150;11.070;2023-07-09T07:03:46;8.98;;;6.68;;
48522;SDS011;34315;50.150;11.070;2023-07-09T07:08:47;8.32;;;6.95;;
48522;SDS011;34315;50.150;11.070;2023-07-09T07:13:48;12.27;;;6.75;;
48522;SDS011;34315;50.150;11.070;2023-07-09T07:18:52;12.17;;;7.33;;
48522;SDS011;34315;50.150;11.070;2023-07-09T07:23:53;9.93;;;6.75;;
48522;SDS011;34315;50.150;11.070;2023-07-09T07:28:54;8.43;;;6.32;;
48522;SDS011;34315;50.150;11.070;2023-07-09T07:33:55;10.43;;;7.05;;
48522;SDS011;34315;50.150;11.070;2023-07-09T07:38:56;10.80;;;6.43;;
48522;SDS011;34315;50.150;11.070;2023-07-09T07:43:57;8.95;;;6.85;;
48522;SDS011;34315;50.150;11.070;2023-07-09T07:48:58;8.77;;;6.47;;
48522;SDS011;34315;50.150;11.070;2023-07-09T07:54:00;9.93;;;7.00;;
48522;SDS011;34315;50.150;11.070;2023-07-09T07:59:02;8.98;;;6.47;;
48522;SDS011;34315;50.150;11.070;2023-07-09T08:04:03;9.27;;;6.47;;
48522;SDS011;34315;50.150;11.070;2023-07-09T08:09:04;10.07;;;6.70;;
48522;SDS011;34315;50.150;11.070;2023-07-09T08:14:05;10.60;;;6.43;;
48522;SDS011;34315;50.150;11.070;2023-07-09T08:19:07;9.50;;;5.90;;
48522;SDS011;34315;50.150;11.070;2023-07-09T08:24:08;7.50;;;5.88;;
48522;SDS011;34315;50.150;11.070;2023-07-09T08:29:09;9.73;;;5.85;;
48522;SDS011;34315;50.150;11.070;2023-07-09T08:34:10;8.85;;;5.45;;
48522;SDS011;34315;50.150;11.070;2023-07-09T08:39:11;6.95;;;4.85;;
48522;SDS011;34315;50.150;11.070;2023-07-09T08:44:26;8.10;;;5.28;;
48522;SDS011;34315;50.150;11.070;2023-07-09T08:54:42;9.90;;;5.15;;
48522;SDS011;34315;50.150;11.070;2023-07-09T08:59:44;9.15;;;5.53;;
48522;SDS011;34315;50.150;11.070;2023-07-09T09:04:45;12.43;;;5.45;;
48522;SDS011;34315;50.150;11.070;2023-07-09T09:09:49;7.88;;;5.38;;
48522;SDS011;34315;50.150;11.070;2023-07-09T09:14:57;9.43;;;5.88;;
48522;SDS011;34315;50.150;11.070;2023-07-09T09:20:00;8.32;;;5.85;;
48522;SDS011;34315;50.150;11.070;2023-07-09T09:30:31;9.32;;;5.32;;
48522;SDS011;34315;50.150;11.070;2023-07-09T09:35:34;20.67;;;5.97;;
48522;SDS011;34315;50.150;11.070;2023-07-09T09:40:39;9.18;;;6.05;;
48522;SDS011;34315;50.150;11.070;2023-07-09T09:45:41;7.18;;;5.45;;
48522;SDS011;34315;50.150;11.070;2023-07-09T09:50:44;8.98;;;5.18;;
48522;SDS011;34315;50.150;11.070;2023-07-09T10:00:48;8.00;;;4.93;;
48522;SDS011;34315;50.150;11.070;2023-07-09T10:05:52;9.02;;;4.85;;
48522;SDS011;34315;50.150;11.070;2023-07-09T10:11:01;9.95;;;4.38;;
48522;SDS011;34315;50.150;11.070;2023-07-09T10:16:18;9.13;;;4.53;;
48522;SDS011;34315;50.150;11.070;2023-07-09T10:21:27;9.20;;;3.70;;
48522;SDS011;34315;50.150;11.070;2023-07-09T10:31:50;5.68;;;3.20;;
48522;SDS011;34315;50.150;11.070;2023-07-09T10:37:08;5.13;;;3.30;;
48522;SDS011;34315;50.150;11.070;2023-07-09T10:42:16;6.35;;;3.45;;
48522;SDS011;34315;50.150;11.070;2023-07-09T10:47:30;8.18;;;3.22;;
48522;SDS011;34315;50.150;11.070;2023-07-09T10:52:35;5.38;;;3.05;;
48522;SDS011;34315;50.150;11.070;2023-07-09T10:57:48;7.18;;;3.65;;
48522;SDS011;34315;50.150;11.070;2023-07-09T11:02:59;5.88;;;3.92;;
48522;SDS011;34315;50.150;11.070;2023-07-09T11:08:05;5.50;;;3.65;;
48522;SDS011;34315;50.150;11.070;2023-07-09T11:13:15;6.10;;;3.28;;
48522;SDS011;34315;50.150;11.070;2023-07-09T11:18:36;8.40;;;3.53;;
48522;SDS011;34315;50.150;11.070;2023-07-09T11:23:39;8.57;;;3.88;;
48522;SDS011;34315;50.150;11.070;2023-07-09T11:28:47;6.53;;;3.65;;
48522;SDS011;34315;50.150;11.070;2023-07-09T11:34:07;7.95;;;3.83;;
48522;SDS011;34315;50.150;11.070;2023-07-09T11:39:27;6.53;;;3.83;;
48522;SDS011;34315;50.150;11.070;2023-07-09T11:44:30;6.30;;;4.00;;
48522;SDS011;34315;50.150;11.070;2023-07-09T11:49:39;6.30;;;3.70;;
48522;SDS011;34315;50.150;11.070;2023-07-09T11:54:53;6.65;;;3.70;;
48522;SDS011;34315;50.150;11.070;2023-07-09T11:59:58;6.68;;;3.50;;
48522;SDS011;34315;50.150;11.070;2023-07-09T12:05:00;7.00;;;3.35;;
48522;SDS011;34315;50.150;11.070;2023-07-09T12:10:21;5.85;;;3.40;;
48522;SDS011;34315;50.150;11.070;2023-07-09T12:15:25;6.07;;;3.72;;
48522;SDS011;34315;50.150;11.070;2023-07-09T12:20:33;7.35;;;3.53;;
48522;SDS011;34315;50.150;11.070;2023-07-09T12:25:35;5.10;;;3.13;;
48522;SDS011;34315;50.150;11.070;2023-07-09T12:30:36;6.22;;;3.47;;
48522;SDS011;34315;50.150;11.070;2023-07-09T12:35:37;7.22;;;3.40;;
48522;SDS011;34315;50.150;11.070;2023-07-09T12:40:38;6.63;;;3.40;;
48522;SDS011;34315;50.150;11.070;2023-07-09T12:45:42;5.47;;;3.40;;
48522;SDS011;34315;50.150;11.070;2023-07-09T12:50:47;7.82;;;3.83;;
48522;SDS011;34315;50.150;11.070;2023-07-09T12:55:50;6.38;;;3.47;;
48522;SDS011;34315;50.150;11.070;2023-07-09T13:00:52;7.03;;;3.43;;
48522;SDS011;34315;50.150;11.070;2023-07-09T13:05:59;6.85;;;3.63;;
48522;SDS011;34315;50.150;11.070;2023-07-09T13:11:01;8.88;;;4.00;;
48522;SDS011;34315;50.150;11.070;2023-07-09T13:16:02;6.75;;;3.90;;
48522;SDS011;34315;50.150;11.070;2023-07-09T13:21:05;5.97;;;3.20;;
48522;SDS011;34315;50.150;11.070;2023-07-09T13:26:15;6.70;;;3.70;;
48522;SDS011;34315;50.150;11.070;2023-07-09T13:31:17;8.43;;;4.30;;
48522;SDS011;34315;50.150;11.070;2023-07-09T13:36:20;7.25;;;3.75;;
48522;SDS011;34315;50.150;11.070;2023-07-09T13:41:21;6.20;;;3.70;;
48522;SDS011;34315;50.150;11.070;2023-07-09T13:46:23;8.77;;;4.13;;
48522;SDS011;34315;50.150;11.070;2023-07-09T13:51:26;7.82;;;4.10;;
48522;SDS011;34315;50.150;11.070;2023-07-09T13:56:28;7.00;;;3.80;;
48522;SDS011;34315;50.150;11.070;2023-07-09T14:01:29;6.80;;;3.95;;
48522;SDS011;34315;50.150;11.070;2023-07-09T14:06:30;6.75;;;3.92;;
48522;SDS011;34315;50.150;11.070;2023-07-09T14:11:31;12.65;;;4.50;;
48522;SDS011;34315;50.150;11.070;2023-07-09T14:16:33;6.73;;;4.37;;
48522;SDS011;34315;50.150;11.070;2023-07-09T14:21:34;6.03;;;3.92;;
48522;SDS011;34315;50.150;11.070;2023-07-09T14:26:35;5.82;;;3.72;;
48522;SDS011;34315;50.150;11.070;2023-07-09T14:31:36;7.10;;;3.67;;
48522;SDS011;34315;50.150;11.070;2023-07-09T14:36:37;6.80;;;3.70;;
48522;SDS011;34315;50.150;11.070;2023-07-09T14:41:39;8.57;;;4.00;;
48522;SDS011;34315;50.150;11.070;2023-07-09T14:51:42;7.10;;;3.90;;
48522;SDS011;34315;50.150;11.070;2023-07-09T14:56:43;9.13;;;3.90;;
48522;SDS011;34315;50.150;11.070;2023-07-09T15:01:44;7.82;;;4.50;;
48522;SDS011;34315;50.150;11.070;2023-07-09T15:06:49;7.70;;;4.53;;
48522;SDS011;34315;50.150;11.070;2023-07-09T15:11:52;6.13;;;3.90;;
48522;SDS011;34315;50.150;11.070;2023-07-09T15:16:54;7.00;;;3.90;;
48522;SDS011;34315;50.150;11.070;2023-07-09T15:21:55;7.13;;;4.18;;
48522;SDS011;34315;50.150;11.070;2023-07-09T15:26:57;9.73;;;4.03;;
48522;SDS011;34315;50.150;11.070;2023-07-09T15:32:00;8.35;;;4.43;;
48522;SDS011;34315;50.150;11.070;2023-07-09T15:37:04;7.50;;;4.13;;
48522;SDS011;34315;50.150;11.070;2023-07-09T15:42:12;9.82;;;4.30;;
48522;SDS011;34315;50.150;11.070;2023-07-09T15:47:16;7.22;;;4.13;;
48522;SDS011;34315;50.150;11.070;2023-07-09T15:52:18;8.80;;;4.85;;
48522;SDS011;34315;50.150;11.070;2023-07-09T15:57:19;6.97;;;4.13;;
48522;SDS011;34315;50.150;11.070;2023-07-09T16:02:20;7.40;;;4.38;;
48522;SDS011;34315;50.150;11.070;2023-07-09T16:07:21;8.10;;;4.45;;
48522;SDS011;34315;50.150;11.070;2023-07-09T16:17:26;8.52;;;4.20;;
48522;SDS011;34315;50.150;11.070;2023-07-09T16:22:27;9.27;;;4.65;;
48522;SDS011;34315;50.150;11.070;2023-07-09T16:27:28;8.23;;;4.60;;
48522;SDS011;34315;50.150;11.070;2023-07-09T16:32:29;8.80;;;4.20;;
48522;SDS011;34315;50.150;11.070;2023-07-09T16:37:30;8.20;;;4.90;;
48522;SDS011;34315;50.150;11.070;2023-07-09T16:42:31;6.07;;;4.25;;
48522;SDS011;34315;50.150;11.070;2023-07-09T16:47:33;7.70;;;5.00;;
48522;SDS011;34315;50.150;11.070;2023-07-09T16:52:34;6.97;;;4.20;;
48522;SDS011;34315;50.150;11.070;2023-07-09T16:57:35;8.48;;;4.95;;
48522;SDS011;34315;50.150;11.070;2023-07-09T17:02:36;8.05;;;4.22;;
48522;SDS011;34315;50.150;11.070;2023-07-09T17:07:38;7.32;;;4.38;;
48522;SDS011;34315;50.150;11.070;2023-07-09T17:12:39;11.25;;;6.68;;
48522;SDS011;34315;50.150;11.070;2023-07-09T17:17:40;7.00;;;4.43;;
48522;SDS011;34315;50.150;11.070;2023-07-09T17:22:41;10.82;;;5.30;;
48522;SDS011;34315;50.150;11.070;2023-07-09T17:27:43;8.23;;;4.70;;
48522;SDS011;34315;50.150;11.070;2023-07-09T17:32:44;6.85;;;4.43;;
48522;SDS011;34315;50.150;11.070;2023-07-09T17:37:49;6.90;;;4.53;;
48522;SDS011;34315;50.150;11.070;2023-07-09T17:42:52;7.32;;;4.32;;
48522;SDS011;34315;50.150;11.070;2023-07-09T17:47:53;10.02;;;4.55;;
48522;SDS011;34315;50.150;11.070;2023-07-09T17:52:54;7.95;;;4.82;;
48522;SDS011;34315;50.150;11.070;2023-07-09T17:57:55;8.95;;;4.50;;
48522;SDS011;34315;50.150;11.070;2023-07-09T18:03:00;8.60;;;4.85;;
48522;SDS011;34315;50.150;11.070;2023-07-09T18:08:07;9.43;;;5.05;;
48522;SDS011;34315;50.150;11.070;2023-07-09T18:13:15;8.52;;;5.45;;
48522;SDS011;34315;50.150;11.070;2023-07-09T18:18:18;6.30;;;4.40;;
48522;SDS011;34315;50.150;11.070;2023-07-09T18:23:19;6.88;;;4.13;;
48522;SDS011;34315;50.150;11.070;2023-07-09T18:28:29;8.80;;;4.88;;
48522;SDS011;34315;50.150;11.070;2023-07-09T18:33:31;10.30;;;4.45;;
48522;SDS011;34315;50.150;11.070;2023-07-09T18:38:33;9.63;;;4.45;;
48522;SDS011;34315;50.150;11.070;2023-07-09T18:43:34;10.88;;;4.70;;
48522;SDS011;34315;50.150;11.070;2023-07-09T18:48:35;10.73;;;4.75;;
48522;SDS011;34315;50.150;11.070;2023-07-09T18:53:36;10.98;;;4.95;;
48522;SDS011;34315;50.150;11.070;2023-07-09T18:58:38;8.25;;;5.00;;
48522;SDS011;34315;50.150;11.070;2023-07-09T19:03:39;8.88;;;4.90;;
48522;SDS011;34315;50.150;11.070;2023-07-09T19:08:40;8.10;;;4.22;;
48522;SDS011;34315;50.150;11.070;2023-07-09T19:13:42;8.48;;;4.32;;
48522;SDS011;34315;50.150;11.070;2023-07-09T19:18:44;7.60;;;4.63;;
48522;SDS011;34315;50.150;11.070;2023-07-09T19:23:45;10.75;;;4.80;;
48522;SDS011;34315;50.150;11.070;2023-07-09T19:28:46;8.15;;;4.80;;
48522;SDS011;34315;50.150;11.070;2023-07-09T19:33:48;20.75;;;5.30;;
48522;SDS011;34315;50.150;11.070;2023-07-09T19:38:49;10.60;;;4.80;;
48522;SDS011;34315;50.150;11.070;2023-07-09T19:43:51;9.18;;;4.72;;
48522;SDS011;34315;50.150;11.070;2023-07-09T19:48:52;8.77;;;4.68;;
48522;SDS011;34315;50.150;11.070;2023-07-09T19:53:53;7.95;;;4.50;;
48522;SDS011;34315;50.150;11.070;2023-07-09T19:58:54;9.32;;;4.55;;
48522;SDS011;34315;50.150;11.070;2023-07-09T20:03:55;9.50;;;4.97;;
48522;SDS011;34315;50.150;11.070;2023-07-09T20:08:56;9.23;;;5.22;;
48522;SDS011;34315;50.150;11.070;2023-07-09T20:13:58;8.85;;;5.05;;
48522;SDS011;34315;50.150;11.070;2023-07-09T20:19:00;9.70;;;5.22;;
48522;SDS011;34315;50.150;11.070;2023-07-09T20:24:13;8.00;;;4.93;;
48522;SDS011;34315;50.150;11.070;2023-07-09T20:29:16;8.82;;;5.03;;
48522;SDS011;34315;50.150;11.070;2023-07-09T20:34:19;7.82;;;5.45;;
48522;SDS011;34315;50.150;11.070;2023-07-09T20:39:26;9.25;;;5.25;;
48522;SDS011;34315;50.150;11.070;2023-07-09T20:44:30;7.93;;;5.30;;
48522;SDS011;34315;50.150;11.070;2023-07-09T20:49:33;10.15;;;5.75;;
48522;SDS011;34315;50.150;11.070;2023-07-09T20:59:38;9.82;;;5.30;;
48522;SDS011;34315;50.150;11.070;2023-07-09T21:04:39;10.98;;;5.60;;
48522;SDS011;34315;50.150;11.070;2023-07-09T21:09:40;9.45;;;5.07;;
48522;SDS011;34315;50.150;11.070;2023-07-09T21:14:42;10.95;;;5.07;;
48522;SDS011;34315;50.150;11.070;2023-07-09T21:19:43;9.85;;;5.47;;
48522;SDS011;34315;50.150;11.070;2023-07-09T21:24:48;10.15;;;5.40;;
48522;SDS011;34315;50.150;11.070;2023-07-09T21:29:50;10.20;;;6.82;;
48522;SDS011;34315;50.150;11.070;2023-07-09T21:34:51;13.32;;;6.57;;
48522;SDS011;34315;50.150;11.070;2023-07-09T21:39:53;10.25;;;6.78;;
48522;SDS011;34315;50.150;11.070;2023-07-09T21:44:54;12.40;;;6.20;;
48522;SDS011;34315;50.150;11.070;2023-07-09T21:49:55;11.00;;;6.28;;
48522;SDS011;34315;50.150;11.070;2023-07-09T21:54:56;9.52;;;6.32;;
48522;SDS011;34315;50.150;11.070;2023-07-09T21:59:57;13.10;;;6.03;;
48522;SDS011;34315;50.150;11.070;2023-07-09T22:05:00;10.88;;;6.10;;
48522;SDS011;34315;50.150;11.070;2023-07-09T22:10:01;11.02;;;6.55;;
48522;SDS011;34315;50.150;11.070;2023-07-09T22:15:09;11.95;;;6.38;;
48522;SDS011;34315;50.150;11.070;2023-07-09T22:20:22;10.93;;;5.82;;
48522;SDS011;34315;50.150;11.070;2023-07-09T22:25:28;12.15;;;5.50;;
48522;SDS011;34315;50.150;11.070;2023-07-09T22:30:30;13.80;;;6.03;;
48522;SDS011;34315;50.150;11.070;2023-07-09T22:35:33;12.10;;;6.32;;
48522;SDS011;34315;50.150;11.070;2023-07-09T22:40:35;12.80;;;6.43;;
48522;SDS011;34315;50.150;11.070;2023-07-09T22:45:36;9.85;;;6.05;;
48522;SDS011;34315;50.150;11.070;2023-07-09T22:50:37;11.45;;;6.20;;
48522;SDS011;34315;50.150;11.070;2023-07-09T22:55:40;9.05;;;5.63;;
48522;SDS011;34315;50.150;11.070;2023-07-09T23:00:46;10.40;;;5.75;;
48522;SDS011;34315;50.150;11.070;2023-07-09T23:05:52;13.55;;;7.43;;
48522;SDS011;34315;50.150;11.070;2023-07-09T23:10:57;10.15;;;6.75;;
48522;SDS011;34315;50.150;11.070;2023-07-09T23:16:02;10.95;;;5.93;;
48522;SDS011;34315;50.150;11.070;2023-07-09T23:21:04;12.73;;;6.10;;
48522;SDS011;34315;50.150;11.070;2023-07-09T23:26:05;8.68;;;6.10;;
48522;SDS011;34315;50.150;11.070;2023-07-09T23:31:24;10.75;;;5.95;;
48522;SDS011;34315;50.150;11.070;2023-07-09T23:36:27;12.43;;;7.07;;
48522;SDS011;34315;50.150;11.070;2023-07-09T23:41:29;11.32;;;6.35;;
48522;SDS011;34315;50.150;11.070;2023-07-09T23:46:32;11.88;;;6.75;;
48522;SDS011;34315;50.150;11.070;2023-07-09T23:51:34;9.25;;;6.20;;
48522;SDS011;34315;50.150;11.070;2023-07-09T23:56:35;13.55;;;6.57;;
